Time;durP1;ratioP1;P1;durP2;ratioP2;P2;SDS_P1;SDS_P2;PMS_P1;PMS_P2;Temp;Humidity;BMP_temperature;BMP_pressure;BME280_temperature;BME280_humidity;BME280_pressure;Samples;Min_cycle;Max_cycle;Signal;HPM_P1;HPM_P2
2022/07/02 00:02:00;;;;;;;;;9.33;7.67;;;;;21.83;49.43;101900.88;5056935;28;47238;-67
2022/07/02 00:04:30;;;;;;;;;8.00;8.00;;;;;21.77;49.04;101906.13;5052380;28;45350;-67
2022/07/02 00:06:55;;;;;;;;;8.67;8.67;;;;;21.78;48.87;101906.97;5062926;28;45425;-67
2022/07/02 00:09:22;;;;;;;;;9.67;9.67;;;;;21.75;50.17;101912.91;5057994;28;45568;-67
2022/07/02 00:11:48;;;;;;;;;12.00;11.00;;;;;21.70;49.53;101902.41;5063911;28;46858;-67
2022/07/02 00:14:15;;;;;;;;;8.33;7.33;;;;;21.66;50.75;101908.53;5037519;28;45451;-67
2022/07/02 00:16:45;;;;;;;;;8.00;8.00;;;;;21.60;51.36;101907.41;5054012;28;45298;-67
2022/07/02 00:19:10;;;;;;;;;12.00;9.00;;;;;21.54;51.88;101899.88;5050104;28;45516;-67
2022/07/02 00:21:39;;;;;;;;;8.33;7.00;;;;;21.53;52.97;101909.22;5056132;28;46350;-67
2022/07/02 00:24:07;;;;;;;;;11.00;8.33;;;;;21.47;52.48;101904.47;5052441;28;45380;-67
2022/07/02 00:26:36;;;;;;;;;15.67;14.33;;;;;21.42;53.02;101900.53;5058178;28;45343;-66
2022/07/02 00:29:19;;;;;;;;;14.00;13.33;;;;;21.35;53.90;101897.69;5056334;28;45259;-67
2022/07/02 00:31:47;;;;;;;;;12.67;11.67;;;;;21.37;53.81;101898.34;5054741;28;45534;-67
2022/07/02 00:34:13;;;;;;;;;12.67;12.00;;;;;21.36;53.70;101904.94;5059047;28;45350;-67
2022/07/02 00:36:39;;;;;;;;;18.00;17.33;;;;;21.25;54.70;101908.19;5055906;28;45338;-67
2022/07/02 00:39:05;;;;;;;;;21.33;17.33;;;;;21.17;55.90;101905.50;5061267;28;45560;-67
2022/07/02 00:41:32;;;;;;;;;14.33;14.33;;;;;21.19;55.85;101895.09;5057333;28;45884;-66
2022/07/02 00:43:58;;;;;;;;;23.00;20.50;;;;;21.05;56.19;101901.44;5059854;28;45461;-66
2022/07/02 00:46:26;;;;;;;;;18.75;18.25;;;;;20.99;57.02;101892.00;5060266;28;45283;-67
2022/07/02 00:48:53;;;;;;;;;20.75;19.00;;;;;20.88;58.71;101895.25;5060644;28;45405;-67
2022/07/02 00:51:18;;;;;;;;;16.00;15.50;;;;;20.84;58.37;101893.91;5060933;28;46244;-67
2022/07/02 00:53:43;;;;;;;;;16.67;15.33;;;;;20.79;58.65;101891.72;5051489;27;45310;-67
2022/07/02 00:56:09;;;;;;;;;14.67;14.00;;;;;20.77;60.45;101882.75;5056278;28;49494;-67
2022/07/02 00:58:34;;;;;;;;;12.67;12.67;;;;;20.73;59.95;101884.19;5058905;28;45484;-67
2022/07/02 01:01:00;;;;;;;;;11.00;9.33;;;;;20.59;60.72;101887.78;5058355;28;45472;-67
2022/07/02 01:03:26;;;;;;;;;10.00;9.33;;;;;20.55;61.11;101890.03;5060820;28;45260;-66
2022/07/02 01:05:53;;;;;;;;;12.67;11.33;;;;;20.48;62.27;101879.91;5059749;28;45334;-67
2022/07/02 01:11:06;;;;;;;;;8.00;8.00;;;;;20.44;62.22;101879.44;5054262;28;45398;-67
2022/07/02 01:13:32;;;;;;;;;9.00;7.33;;;;;20.41;62.08;101890.84;5049390;28;45453;-67
2022/07/02 01:15:58;;;;;;;;;6.33;6.00;;;;;20.37;63.02;101883.13;5057931;28;45780;-67
2022/07/02 01:18:23;;;;;;;;;7.00;6.33;;;;;20.36;61.52;101884.16;5052791;28;45413;-67
2022/07/02 01:20:49;;;;;;;;;6.00;5.00;;;;;20.34;61.68;101884.34;5059417;28;45363;-67
2022/07/02 01:23:14;;;;;;;;;8.67;8.00;;;;;20.25;64.27;101881.78;5056967;28;45171;-67
2022/07/02 01:25:40;;;;;;;;;8.67;7.00;;;;;20.14;64.93;101895.00;5058982;28;45290;-67
2022/07/02 01:28:05;;;;;;;;;8.33;7.33;;;;;20.07;65.53;101893.16;5060033;28;45312;-67
2022/07/02 01:30:31;;;;;;;;;5.00;5.00;;;;;19.95;66.75;101900.97;5058240;28;45367;-67
2022/07/02 01:32:56;;;;;;;;;6.00;5.00;;;;;19.92;65.11;101903.25;5061410;28;45431;-67
2022/07/02 01:35:22;;;;;;;;;8.00;5.00;;;;;19.94;67.33;101888.22;5059532;28;45212;-67
2022/07/02 01:37:49;;;;;;;;;6.00;6.00;;;;;19.84;67.32;101904.16;5063712;28;45199;-66
2022/07/02 01:40:14;;;;;;;;;7.00;6.67;;;;;19.81;67.19;101910.00;5053309;27;45628;-67
2022/07/02 01:42:40;;;;;;;;;4.33;4.33;;;;;19.78;67.64;101905.72;5058214;28;45392;-66
2022/07/02 01:45:06;;;;;;;;;9.33;7.33;;;;;19.69;68.80;101900.44;5050955;28;45420;-67
2022/07/02 01:47:31;;;;;;;;;9.00;7.00;;;;;19.64;68.56;101905.63;5062533;28;45425;-67
2022/07/02 01:49:57;;;;;;;;;6.00;6.00;;;;;19.61;69.10;101898.56;5053358;28;47823;-67
2022/07/02 01:52:23;;;;;;;;;8.33;7.00;;;;;19.57;68.96;101901.88;5052153;28;45321;-67
2022/07/02 01:54:48;;;;;;;;;7.00;7.00;;;;;19.55;69.46;101899.28;5053481;28;45551;-66
2022/07/02 01:57:14;;;;;;;;;6.33;6.33;;;;;19.55;69.82;101899.28;5057852;28;45454;-67
2022/07/02 01:59:40;;;;;;;;;5.67;5.67;;;;;19.54;69.31;101899.47;5051176;28;45786;-67
2022/07/02 02:02:06;;;;;;;;;7.00;6.00;;;;;19.59;68.78;101894.25;5059495;28;45239;-67
2022/07/02 02:04:32;;;;;;;;;8.00;7.00;;;;;19.62;68.93;101903.06;5053695;28;45590;-67
2022/07/02 02:06:58;;;;;;;;;6.00;6.00;;;;;19.53;70.17;101901.38;5061322;28;45370;-66
2022/07/02 02:09:23;;;;;;;;;8.00;5.33;;;;;19.49;70.49;101894.50;5053010;28;47660;-67
2022/07/02 02:11:49;;;;;;;;;7.67;5.00;;;;;19.48;69.89;101894.69;5061897;28;45230;-66
2022/07/02 02:14:14;;;;;;;;;8.00;5.00;;;;;19.51;70.47;101891.53;5057507;28;45721;-67
2022/07/02 02:16:40;;;;;;;;;5.00;5.00;;;;;19.42;70.92;101888.81;5052068;28;45416;-67
2022/07/02 02:19:06;;;;;;;;;7.00;7.00;;;;;19.39;70.89;101891.06;5047729;28;45472;-66
2022/07/02 02:21:32;;;;;;;;;7.00;7.00;;;;;19.30;71.65;101890.22;5053321;28;45434;-66
2022/07/02 02:23:58;;;;;;;;;6.67;6.67;;;;;19.31;71.48;101888.31;5049817;28;45367;-67
2022/07/02 02:26:24;;;;;;;;;6.00;5.33;;;;;19.21;72.43;101880.28;5056478;28;45378;-67
2022/07/02 02:28:49;;;;;;;;;8.00;7.00;;;;;19.13;73.20;101876.69;5051173;28;47639;-67
2022/07/02 02:31:15;;;;;;;;;9.00;7.00;;;;;19.07;73.73;101877.41;5057850;28;45364;-67
2022/07/02 02:33:41;;;;;;;;;5.67;5.67;;;;;19.09;73.26;101876.16;5054277;28;45408;-66
2022/07/02 02:36:07;;;;;;;;;8.33;7.00;;;;;19.04;74.13;101892.38;5059289;28;45182;-66
2022/07/02 02:38:36;;;;;;;;;7.33;5.67;;;;;18.93;75.14;101887.22;5056944;28;46016;-68
2022/07/02 02:41:05;;;;;;;;;8.33;7.00;;;;;18.88;75.19;101878.63;5055081;28;45403;-67
2022/07/02 02:43:31;;;;;;;;;9.67;8.00;;;;;18.93;74.46;101877.06;5058309;28;46275;-67
2022/07/02 02:45:56;;;;;;;;;9.00;6.33;;;;;18.97;73.88;101877.59;5056111;28;45372;-67
2022/07/02 02:48:22;;;;;;;;;9.00;8.67;;;;;19.01;74.00;101865.16;5061363;28;45488;-67
2022/07/02 02:50:47;;;;;;;;;7.33;7.00;;;;;19.01;74.26;101874.31;5056351;28;45306;-67
2022/07/02 02:53:13;;;;;;;;;10.00;6.67;;;;;18.92;74.27;101866.25;5051780;28;46053;-67
2022/07/02 02:55:38;;;;;;;;;8.67;8.00;;;;;18.93;74.71;101867.94;5060768;28;45306;-66
2022/07/02 02:58:03;;;;;;;;;5.67;5.67;;;;;18.87;74.91;101872.25;5049611;28;45443;-67
2022/07/02 03:00:29;;;;;;;;;10.67;8.33;;;;;18.90;74.57;101869.19;5055979;28;45476;-67
2022/07/02 03:02:54;;;;;;;;;12.00;10.00;;;;;18.84;75.17;101872.63;5055272;28;45263;-66
2022/07/02 03:05:19;;;;;;;;;9.00;7.33;;;;;18.81;76.20;101866.59;5056871;28;45477;-66
2022/07/02 03:07:45;;;;;;;;;10.67;9.33;;;;;18.75;76.34;101875.56;5054732;28;46269;-66
2022/07/02 03:10:10;;;;;;;;;11.67;10.00;;;;;18.70;76.42;101869.72;5055205;28;45387;-66
2022/07/02 03:12:36;;;;;;;;;9.00;9.00;;;;;18.67;76.88;101870.94;5061771;28;45469;-66
2022/07/02 03:15:01;;;;;;;;;11.00;10.00;;;;;18.72;76.62;101875.91;5047479;28;45403;-66
2022/07/02 03:17:26;;;;;;;;;8.00;8.00;;;;;18.71;76.92;101871.44;5049134;28;46640;-66
2022/07/02 03:19:52;;;;;;;;;10.33;9.00;;;;;18.66;77.31;101871.97;5051917;28;45430;-66
2022/07/02 03:22:18;;;;;;;;;12.00;10.67;;;;;18.69;76.47;101873.50;5050235;28;45298;-66
2022/07/02 03:24:43;;;;;;;;;10.00;10.00;;;;;18.74;76.94;101876.59;5054203;28;45433;-65
2022/07/02 03:27:08;;;;;;;;;10.00;8.67;;;;;18.64;77.13;101879.53;5050638;28;45443;-66
2022/07/02 03:29:34;;;;;;;;;10.00;8.00;;;;;18.66;76.46;101874.72;5057868;28;45443;-66
2022/07/02 03:31:59;;;;;;;;;11.67;10.00;;;;;18.73;75.81;101880.38;5052459;28;45402;-66
2022/07/02 03:34:24;;;;;;;;;12.33;12.33;;;;;18.79;75.66;101874.16;5059201;28;45606;-66
2022/07/02 03:36:50;;;;;;;;;14.33;13.00;;;;;18.74;76.50;101871.09;5055559;28;45393;-65
2022/07/02 03:39:15;;;;;;;;;8.67;8.67;;;;;18.75;75.76;101864.56;5059120;28;45384;-67
2022/07/02 03:41:40;;;;;;;;;7.00;4.00;;;;;18.65;76.91;101864.72;5054450;28;45377;-65
2022/07/02 03:44:06;;;;;;;;;12.33;11.00;;;;;18.75;76.13;101872.81;5056394;28;45517;-65
2022/07/02 03:46:31;;;;;;;;;10.67;10.67;;;;;18.72;76.59;101874.00;5060732;28;45474;-65
2022/07/02 03:48:56;;;;;;;;;12.00;11.67;;;;;18.75;75.87;101872.81;5045119;28;45450;-66
2022/07/02 03:51:22;;;;;;;;;13.00;10.67;;;;;18.78;75.14;101876.06;5057703;28;45745;-66
2022/07/02 03:53:48;;;;;;;;;12.33;10.67;;;;;18.82;75.04;101868.31;5049248;27;45709;-66
2022/07/02 03:56:13;;;;;;;;;11.33;11.33;;;;;18.83;74.82;101881.94;5057732;28;47164;-66
2022/07/02 03:58:39;;;;;;;;;15.67;14.33;;;;;18.78;76.08;101877.97;5056706;28;45555;-65
2022/07/02 04:01:04;;;;;;;;;13.33;11.00;;;;;18.70;75.81;101872.50;5056923;28;45938;-66
2022/07/02 04:03:30;;;;;;;;;13.67;12.00;;;;;18.61;76.90;101874.38;5054295;28;45402;-66
2022/07/02 04:05:55;;;;;;;;;11.67;11.67;;;;;18.65;76.52;101873.00;5057499;28;46274;-66
2022/07/02 04:08:21;;;;;;;;;11.67;11.67;;;;;18.70;76.70;101875.25;5057896;28;45456;-65
2022/07/02 04:10:46;;;;;;;;;12.33;12.00;;;;;18.71;76.47;101877.78;5055691;28;45378;-66
2022/07/02 04:13:13;;;;;;;;;11.67;11.67;;;;;18.72;76.28;101873.16;5060529;28;45456;-66
2022/07/02 04:15:38;;;;;;;;;14.00;11.33;;;;;18.72;75.48;101873.16;5047476;28;45357;-66
2022/07/02 04:18:04;;;;;;;;;10.67;10.33;;;;;18.70;76.62;101864.22;5047583;28;45515;-66
2022/07/02 04:20:29;;;;;;;;;9.67;9.67;;;;;18.66;76.60;101875.56;5053868;28;45367;-66
2022/07/02 04:22:54;;;;;;;;;1.00;0.00;;;;;18.73;76.36;101880.38;5052487;28;45576;-66
2022/07/02 04:25:20;;;;;;;;;11.00;10.00;;;;;18.76;76.11;101880.91;5049035;28;46641;-66
2022/07/02 04:27:45;;;;;;;;;12.67;11.00;;;;;18.79;75.28;101874.16;5054129;28;45306;-66
2022/07/02 04:30:11;;;;;;;;;12.33;11.00;;;;;18.90;74.42;101882.09;5052977;28;45520;-66
2022/07/02 04:32:37;;;;;;;;;10.33;10.00;;;;;18.94;75.52;101872.41;5055011;28;45390;-66
2022/07/02 04:35:03;;;;;;;;;12.67;12.67;;;;;18.92;75.19;101882.78;5052504;28;45490;-66
2022/07/02 04:37:28;;;;;;;;;15.67;14.00;;;;;18.97;74.40;101883.09;5055353;28;45271;-66
2022/07/02 04:39:54;;;;;;;;;13.00;10.00;;;;;19.02;74.08;101888.94;5054725;28;45774;-66
2022/07/02 04:42:19;;;;;;;;;12.00;12.00;;;;;19.10;74.63;101886.16;5057191;28;47050;-66
2022/07/02 04:44:44;;;;;;;;;10.67;10.33;;;;;19.11;74.23;101887.88;5056030;28;46516;-66
2022/07/02 04:47:10;;;;;;;;;13.67;9.00;;;;;19.22;73.37;101876.47;5059728;28;45421;-66
2022/07/02 04:49:35;;;;;;;;;14.67;13.33;;;;;19.26;72.89;101871.47;5055928;28;45366;-66
2022/07/02 04:52:00;;;;;;;;;15.00;13.67;;;;;19.38;73.10;101876.41;5062613;28;45437;-66
2022/07/02 04:54:26;;;;;;;;;12.00;10.33;;;;;19.49;72.91;101875.22;5050448;28;45528;-65
2022/07/02 04:56:51;;;;;;;;;12.75;12.50;;;;;19.66;71.49;101884.22;5062035;28;45389;-65
2022/07/02 04:59:17;;;;;;;;;14.67;13.67;;;;;19.72;71.66;101875.25;5048465;28;45435;-65
2022/07/02 05:01:43;;;;;;;;;12.00;12.00;;;;;19.78;70.36;101878.16;5059707;28;45531;-65
2022/07/02 05:04:08;;;;;;;;;13.33;11.33;;;;;19.90;70.83;101878.59;5051296;28;46370;-66
2022/07/02 05:06:33;;;;;;;;;10.00;10.00;;;;;19.92;70.49;101873.75;5059521;28;45424;-66
2022/07/02 05:08:59;;;;;;;;;13.50;12.75;;;;;20.03;69.79;101881.59;5052038;28;45301;-66
2022/07/02 05:11:24;;;;;;;;;14.00;11.25;;;;;20.11;69.82;101884.31;5058798;28;45401;-66
2022/07/02 05:13:50;;;;;;;;;17.00;15.00;;;;;20.12;69.24;101875.00;5052799;28;45270;-66
2022/07/02 05:16:16;;;;;;;;;15.25;14.25;;;;;20.60;67.93;101873.75;5063163;28;45407;-65
2022/07/02 05:18:42;;;;;;;;;19.00;16.50;;;;;20.79;65.51;101872.38;5056817;28;45403;-66
2022/07/02 05:21:07;;;;;;;;;13.25;13.25;;;;;20.88;65.58;101874.00;5062857;28;45302;-66
2022/07/02 05:23:32;;;;;;;;;11.67;11.67;;;;;20.85;65.00;101870.75;5060078;28;45307;-66
2022/07/02 05:25:58;;;;;;;;;14.25;13.50;;;;;21.00;64.78;101874.41;5060520;28;45399;-66
2022/07/02 05:28:23;;;;;;;;;16.25;15.75;;;;;21.07;65.13;101874.50;5063007;28;45250;-66
2022/07/02 05:30:51;;;;;;;;;12.00;12.00;;;;;21.12;64.47;101883.91;5059326;28;45426;-66
2022/07/02 05:33:17;;;;;;;;;17.50;14.75;;;;;21.28;63.26;101880.16;5053230;28;46832;-66
2022/07/02 05:35:42;;;;;;;;;16.50;14.00;;;;;21.28;63.27;101866.31;5059662;28;45269;-66
2022/07/02 05:38:08;;;;;;;;;13.67;12.67;;;;;21.54;61.53;101869.47;5050707;28;45385;-67
2022/07/02 05:40:33;;;;;;;;;17.67;17.33;;;;;22.83;58.59;101874.88;5060077;28;45427;-67
2022/07/02 05:42:59;;;;;;;;;12.33;12.33;;;;;23.51;55.60;101880.69;5051097;28;45397;-67
2022/07/02 05:45:24;;;;;;;;;11.00;11.00;;;;;24.98;51.42;101867.75;5058409;28;45368;-66
2022/07/02 05:47:49;;;;;;;;;13.00;12.33;;;;;25.04;49.66;101864.09;5055063;28;45325;-66
2022/07/02 05:50:15;;;;;;;;;11.67;11.67;;;;;24.32;51.51;101870.50;5055400;28;45658;-67
2022/07/02 05:52:40;;;;;;;;;12.67;12.67;;;;;23.78;52.17;101868.63;5058940;28;46074;-66
2022/07/02 05:55:06;;;;;;;;;16.00;13.67;;;;;23.45;53.64;101873.16;5054163;28;45401;-66
2022/07/02 05:57:31;;;;;;;;;15.67;13.67;;;;;23.28;53.81;101875.41;5062118;28;45318;-66
2022/07/02 05:59:56;;;;;;;;;13.67;10.00;;;;;23.18;54.31;101867.44;5055205;28;45524;-66
2022/07/02 06:02:23;;;;;;;;;18.00;16.00;;;;;23.06;55.28;101866.31;5063327;28;45273;-67
2022/07/02 06:04:48;;;;;;;;;14.67;14.00;;;;;23.03;56.73;101875.03;5054293;28;45223;-66
2022/07/02 06:09:58;;;;;;;;;13.33;12.33;;;;;23.55;55.09;101876.41;5054197;28;45507;-67
2022/07/02 06:12:23;;;;;;;;;15.67;14.67;;;;;24.94;52.04;101869.25;5052734;28;45598;-67
2022/07/02 06:14:49;;;;;;;;;16.33;12.00;;;;;25.46;49.49;101863.56;5054266;28;45425;-67
2022/07/02 06:17:14;;;;;;;;;16.67;14.67;;;;;24.95;50.13;101870.94;5054626;28;45343;-66
2022/07/02 06:19:40;;;;;;;;;15.25;15.00;;;;;24.46;50.98;101874.16;5057901;28;45446;-67
2022/07/02 06:22:05;;;;;;;;;16.33;15.33;;;;;24.25;51.52;101880.75;5057326;28;45503;-67
2022/07/02 06:24:31;;;;;;;;;14.33;13.33;;;;;24.17;52.64;101875.34;5056524;28;45483;-67
2022/07/02 06:26:56;;;;;;;;;13.67;13.00;;;;;24.19;52.47;101875.97;5060407;28;45310;-67
2022/07/02 06:29:22;;;;;;;;;16.67;13.67;;;;;24.12;52.57;101880.66;5057424;28;45432;-67
2022/07/02 06:31:47;;;;;;;;;15.67;14.00;;;;;24.23;51.63;101877.31;5060633;28;46722;-67
2022/07/02 06:34:12;;;;;;;;;12.00;12.00;;;;;24.25;50.80;101867.72;5059249;28;47679;-67
2022/07/02 06:36:38;;;;;;;;;12.00;12.00;;;;;24.25;50.00;101876.06;5054746;28;45442;-66
2022/07/02 06:39:03;;;;;;;;;20.50;16.25;;;;;24.24;51.26;101874.34;5050389;28;45453;-67
2022/07/02 06:44:12;;;;;;;;;9.00;7.33;;;;;24.30;45.69;101872.63;5047970;28;45377;-67
2022/07/02 06:46:38;;;;;;;;;9.00;9.00;;;;;24.49;47.42;101874.56;5053101;28;45263;-67
2022/07/02 06:49:03;;;;;;;;;5.67;5.67;;;;;24.39;44.29;101871.38;5056799;28;45576;-67
2022/07/02 06:51:28;;;;;;;;;5.33;5.33;;;;;24.55;46.10;101859.81;5054022;28;46456;-68
2022/07/02 06:54:00;;;;;;;;;5.33;5.33;;;;;24.73;45.40;101861.97;5058483;28;45437;-67
2022/07/02 06:56:26;;;;;;;;;7.67;4.33;;;;;24.88;43.86;101858.94;5054007;28;45330;-67
2022/07/02 06:58:51;;;;;;;;;6.00;6.00;;;;;24.85;43.77;101854.66;5048264;28;45551;-67
2022/07/02 07:01:17;;;;;;;;;4.67;4.00;;;;;24.82;43.91;101855.97;5052270;28;46734;-67
2022/07/02 07:03:42;;;;;;;;;4.67;4.00;;;;;24.86;44.24;101863.88;5058253;28;45287;-67
2022/07/02 07:06:07;;;;;;;;;3.33;3.33;;;;;24.93;43.69;101868.38;5058482;28;45361;-67
2022/07/02 07:08:33;;;;;;;;;4.67;4.00;;;;;25.06;42.60;101870.28;5050480;28;45890;-68
2022/07/02 07:10:58;;;;;;;;;5.00;3.00;;;;;25.14;41.09;101865.34;5054371;28;45329;-68
2022/07/02 07:13:23;;;;;;;;;4.67;3.33;;;;;25.19;41.09;101862.78;5056517;28;45441;-68
2022/07/02 07:15:49;;;;;;;;;4.00;2.00;;;;;25.24;41.86;101864.91;5057696;28;45796;-68
2022/07/02 07:18:14;;;;;;;;;2.00;2.00;;;;;25.30;41.28;101863.16;5062368;28;45464;-68
2022/07/02 07:20:39;;;;;;;;;4.67;4.67;;;;;25.36;40.24;101863.16;5054852;28;45525;-68
2022/07/02 07:23:04;;;;;;;;;3.00;3.00;;;;;25.43;40.29;101855.63;5061029;28;45855;-68
2022/07/02 07:25:30;;;;;;;;;4.00;3.00;;;;;25.41;39.44;101854.16;5059312;28;45239;-69
2022/07/02 07:27:56;;;;;;;;;2.00;2.00;;;;;25.49;39.58;101856.69;5050914;28;45343;-68
2022/07/02 07:30:21;;;;;;;;;2.67;2.67;;;;;25.55;39.67;101853.88;5048924;28;45504;-68
2022/07/02 07:32:46;;;;;;;;;3.00;2.00;;;;;25.60;40.24;101844.91;5053571;28;45377;-68
2022/07/02 07:35:12;;;;;;;;;2.00;2.00;;;;;25.69;39.29;101845.50;5049177;28;45302;-68
2022/07/02 07:37:37;;;;;;;;;2.33;1.67;;;;;25.72;38.30;101851.47;5055770;28;45402;-68
2022/07/02 07:40:04;;;;;;;;;3.00;1.00;;;;;25.71;37.86;101851.72;5051385;28;45717;-68
2022/07/02 07:42:30;;;;;;;;;3.00;3.00;;;;;25.80;38.60;101856.78;5057241;28;45433;-68
2022/07/02 07:44:55;;;;;;;;;4.00;2.33;;;;;25.86;37.67;101852.28;5052924;28;45495;-68
2022/07/02 07:47:21;;;;;;;;;3.33;2.33;;;;;25.85;36.62;101840.28;5059369;28;45320;-68
2022/07/02 07:49:46;;;;;;;;;1.00;1.00;;;;;25.96;37.30;101844.28;5053871;28;45508;-68
2022/07/02 07:52:11;;;;;;;;;2.00;2.00;;;;;26.12;36.99;101840.97;5060934;28;45359;-68
2022/07/02 07:54:38;;;;;;;;;1.00;1.00;;;;;26.25;36.99;101845.63;5055020;28;45444;-68
2022/07/02 07:57:04;;;;;;;;;2.00;2.00;;;;;26.28;37.34;101843.25;5061418;28;45446;-68
2022/07/02 07:59:29;;;;;;;;;2.00;2.00;;;;;26.38;36.80;101844.66;5070059;27;45869;-67
2022/07/02 08:01:55;;;;;;;;;1.00;1.00;;;;;26.45;36.52;101842.66;5054628;28;45449;-68
2022/07/02 08:04:20;;;;;;;;;2.00;2.00;;;;;26.50;35.66;101840.94;5053815;28;45389;-68
2022/07/02 08:06:45;;;;;;;;;2.00;2.00;;;;;26.52;35.09;101832.34;5056588;28;45591;-68
2022/07/02 08:09:11;;;;;;;;;1.00;1.00;;;;;26.51;35.47;101836.22;5048233;28;46068;-68
2022/07/02 08:11:36;;;;;;;;;2.67;2.67;;;;;26.60;34.19;101837.63;5055857;28;45330;-68
2022/07/02 08:14:01;;;;;;;;;1.00;1.00;;;;;26.73;35.72;101831.94;5048938;28;45394;-67
2022/07/02 08:16:26;;;;;;;;;5.00;3.00;;;;;26.93;33.83;101837.34;5054313;28;45665;-68
2022/07/02 08:18:52;;;;;;;;;1.00;1.00;;;;;26.64;33.02;101827.72;5051085;28;45365;-67
2022/07/02 08:21:18;;;;;;;;;1.00;1.00;;;;;26.85;34.38;101824.53;5056786;28;45387;-68
2022/07/02 08:23:43;;;;;;;;;1.00;1.00;;;;;26.98;34.24;101835.56;5059584;28;45327;-68
2022/07/02 08:26:09;;;;;;;;;2.67;2.67;;;;;27.06;34.46;101821.31;5059808;28;45453;-68
2022/07/02 08:28:35;;;;;;;;;2.00;1.67;;;;;26.49;32.81;101825.28;5059344;28;45433;-68
2022/07/02 08:31:01;;;;;;;;;2.00;2.00;;;;;26.37;33.40;101820.69;5062580;28;45378;-67
2022/07/02 08:33:26;;;;;;;;;0.00;0.00;;;;;26.71;32.42;101822.94;5062894;28;45411;-68
2022/07/02 08:35:52;;;;;;;;;2.00;2.00;;;;;26.81;32.52;101819.66;5055111;28;45276;-68
2022/07/02 08:38:17;;;;;;;;;3.00;1.67;;;;;26.39;31.84;101824.06;5055064;28;46451;-67
2022/07/02 08:40:44;;;;;;;;;0.33;0.33;;;;;26.25;32.86;101829.75;5054521;28;45381;-68
2022/07/02 08:43:13;;;;;;;;;1.33;1.33;;;;;26.42;33.27;101820.84;5056519;28;45419;-68
2022/07/02 08:45:41;;;;;;;;;2.00;2.00;;;;;26.64;32.08;101828.59;5054637;28;45545;-68
2022/07/02 08:48:08;;;;;;;;;2.00;1.00;;;;;27.04;32.63;101828.19;5048733;28;45366;-68
2022/07/02 08:50:35;;;;;;;;;2.00;1.67;;;;;27.16;31.72;101812.41;5058187;28;45436;-68
2022/07/02 08:53:02;;;;;;;;;1.00;1.00;;;;;27.30;31.62;101815.91;5050635;28;45246;-68
2022/07/02 08:55:31;;;;;;;;;0.33;0.33;;;;;27.09;30.92;101822.81;5057317;28;45469;-68
2022/07/02 08:57:58;;;;;;;;;1.00;1.00;;;;;26.86;31.66;101815.06;5063163;28;45365;-67
2022/07/02 09:00:23;;;;;;;;;1.00;1.00;;;;;27.12;31.95;101812.03;5057488;28;45389;-68
2022/07/02 09:02:51;;;;;;;;;0.33;0.33;;;;;27.42;31.29;101809.31;5064549;28;45370;-69
2022/07/02 09:05:18;;;;;;;;;1.00;1.00;;;;;27.76;29.60;101810.56;5050759;28;45412;-68
2022/07/02 09:07:45;;;;;;;;;1.00;1.00;;;;;27.32;29.82;101808.16;5061733;28;47310;-68
2022/07/02 09:10:10;;;;;;;;;1.00;1.00;;;;;27.76;29.77;101820.94;5054419;28;45546;-68
2022/07/02 09:12:37;;;;;;;;;2.00;1.00;;;;;27.58;30.19;101807.84;5053472;28;45340;-68
2022/07/02 09:15:04;;;;;;;;;0.00;0.00;;;;;28.02;28.87;101800.13;5056303;28;45290;-68
2022/07/02 09:17:30;;;;;;;;;0.00;0.00;;;;;28.07;29.54;101800.25;5053987;28;45572;-68
2022/07/02 09:19:55;;;;;;;;;1.00;1.00;;;;;28.34;29.80;101804.38;5058674;28;45385;-68
2022/07/02 09:22:31;;;;;;;;;2.00;2.00;;;;;28.71;29.41;101804.16;5055563;28;45501;-69
2022/07/02 09:25:08;;;;;;;;;1.67;1.00;;;;;28.47;28.52;101804.16;5054715;28;45239;-68
2022/07/02 09:27:33;;;;;;;;;1.00;1.00;;;;;28.46;28.53;101805.22;5055217;28;46175;-68
2022/07/02 09:29:58;;;;;;;;;0.00;0.00;;;;;27.98;28.36;101810.09;5061453;28;45274;-68
2022/07/02 09:32:24;;;;;;;;;1.67;1.00;;;;;28.40;29.62;101810.94;5059652;28;45297;-69
2022/07/02 09:34:51;;;;;;;;;1.00;1.00;;;;;28.83;28.27;101800.28;5057205;28;45354;-69
2022/07/02 09:37:24;;;;;;;;;1.00;1.00;;;;;28.98;27.40;101802.59;5057777;28;46483;-69
2022/07/02 09:39:55;;;;;;;;;1.00;1.00;;;;;29.35;28.10;101795.63;5054995;28;45603;-69
2022/07/02 09:42:26;;;;;;;;;3.00;3.00;;;;;29.76;28.55;101793.63;5074048;28;45249;-69
2022/07/02 09:44:52;;;;;;;;;1.00;1.00;;;;;29.91;27.44;101791.13;5050829;28;45624;-69
2022/07/02 09:47:28;;;;;;;;;2.33;0.00;;;;;29.72;26.68;101784.03;5050189;28;46052;-69
2022/07/02 09:49:53;;;;;;;;;3.00;1.67;;;;;29.59;26.89;101782.38;5045746;28;45536;-69
2022/07/02 09:52:18;;;;;;;;;0.00;0.00;;;;;29.48;27.79;101788.03;5053054;28;45282;-69
2022/07/02 09:54:44;;;;;;;;;4.00;3.67;;;;;29.92;27.40;101786.38;5049884;28;45287;-69
2022/07/02 09:57:11;;;;;;;;;1.00;1.00;;;;;30.28;27.35;101788.75;5061382;28;46212;-68
2022/07/02 09:59:38;;;;;;;;;1.00;1.00;;;;;30.61;27.15;101779.53;5055588;28;45448;-69
2022/07/02 10:02:04;;;;;;;;;1.00;1.00;;;;;30.90;26.98;101778.25;5062243;28;45392;-67
2022/07/02 10:04:33;;;;;;;;;1.00;1.00;;;;;30.76;26.56;101776.91;5053980;28;45397;-69
2022/07/02 10:07:00;;;;;;;;;0.00;0.00;;;;;30.84;25.45;101779.28;5053572;28;46182;-70
2022/07/02 10:09:26;;;;;;;;;1.00;1.00;;;;;30.98;25.68;101778.94;5056807;28;45186;-69
2022/07/02 10:11:53;;;;;;;;;1.00;1.00;;;;;30.38;25.68;101776.88;5056879;28;45366;-69
2022/07/02 10:14:20;;;;;;;;;1.00;1.00;;;;;30.99;25.02;101769.38;5056989;28;45695;-68
2022/07/02 10:16:50;;;;;;;;;0.67;0.67;;;;;31.25;25.70;101760.25;5052294;28;46607;-69
2022/07/02 10:19:17;;;;;;;;;1.00;1.00;;;;;31.65;24.66;101769.19;5055797;28;45529;-69
2022/07/02 10:21:43;;;;;;;;;1.00;0.67;;;;;31.71;22.88;101754.06;5054132;28;45292;-69
2022/07/02 10:24:10;;;;;;;;;2.67;1.00;;;;;31.65;23.68;101748.66;5048872;28;46095;-69
2022/07/02 10:26:37;;;;;;;;;1.00;1.00;;;;;31.28;23.74;101756.91;5062718;28;46470;-69
2022/07/02 10:29:02;;;;;;;;;1.00;1.00;;;;;31.18;23.74;101756.78;5075013;27;45490;-68
2022/07/02 10:31:34;;;;;;;;;1.00;1.00;;;;;31.02;23.63;101764.13;5060078;28;45375;-69
2022/07/02 10:34:18;;;;;;;;;1.00;1.00;;;;;31.26;24.37;101753.53;5054841;28;45384;-69
2022/07/02 10:36:44;;;;;;;;;0.67;0.00;;;;;31.68;23.92;101750.94;5057267;28;46793;-69
2022/07/02 10:39:15;;;;;;;;;1.67;1.00;;;;;31.74;23.98;101749.03;5058829;28;45168;-69
2022/07/02 10:41:40;;;;;;;;;1.00;1.00;;;;;32.39;23.64;101735.59;5056153;28;45312;-67
2022/07/02 10:44:09;;;;;;;;;3.00;3.00;;;;;32.71;22.56;101731.91;5059990;28;45496;-67
2022/07/02 10:46:36;;;;;;;;;4.67;4.67;;;;;32.76;22.75;101734.75;5054385;28;46645;-67
2022/07/02 10:49:02;;;;;;;;;16.00;16.00;;;;;33.17;22.85;101733.81;5058661;28;45403;-67
2022/07/02 10:51:29;;;;;;;;;58.00;46.75;;;;;33.41;22.09;101739.88;5058623;28;45426;-68
2022/07/02 10:53:58;;;;;;;;;10.33;10.33;;;;;33.59;22.23;101739.38;5049362;28;45551;-68
2022/07/02 10:56:23;;;;;;;;;2.33;2.33;;;;;33.87;20.83;101725.91;5063094;28;45803;-68
2022/07/02 10:58:49;;;;;;;;;2.00;2.00;;;;;32.86;21.88;101732.00;5061321;28;45436;-68
2022/07/02 11:01:22;;;;;;;;;1.67;1.00;;;;;32.95;21.91;101726.72;5058828;28;45513;-68
2022/07/02 11:03:59;;;;;;;;;14.25;14.25;;;;;33.23;21.73;101727.16;5046826;28;45290;-68
2022/07/02 11:06:29;;;;;;;;;10.67;10.67;;;;;33.80;21.63;101722.53;5059361;28;46551;-68
2022/07/02 11:08:57;;;;;;;;;3.00;3.00;;;;;34.02;21.42;101725.94;5056232;28;45398;-67
2022/07/02 11:11:35;;;;;;;;;3.00;1.00;;;;;33.10;20.80;101723.94;5067363;28;45472;-66
2022/07/02 11:14:20;;;;;;;;;9.33;9.00;;;;;33.55;20.99;101718.50;5057907;28;45685;-66
2022/07/02 11:16:46;;;;;;;;;1.00;1.00;;;;;33.29;21.26;101724.34;5057002;28;45481;-67
2022/07/02 11:19:11;;;;;;;;;0.00;0.00;;;;;32.91;21.36;101723.59;5051179;28;45524;-69
2022/07/02 11:21:39;;;;;;;;;1.00;1.00;;;;;32.76;21.30;101720.69;5063142;28;45298;-67
2022/07/02 11:24:05;;;;;;;;;42.50;36.50;;;;;33.68;20.50;101722.75;5056659;28;45602;-67